Time;durP1;ratioP1;P1;durP2;ratioP2;P2;SDS_P1;SDS_P2;PMS_P1;PMS_P2;Temp;Humidity;BMP_temperature;BMP_pressure;BME280_temperature;BME280_humidity;BME280_pressure;Samples;Min_cycle;Max_cycle;Signal;HPM_P1;HPM_P2
2022/08/31 00:05:20;;;;;;;6.20;5.00;;;22.40;68.10;;;;;;5039600;28;20520;-84
2022/08/31 00:07:53;;;;;;;7.60;5.80;;;22.40;67.70;;;;;;5038726;28;20957;-84
2022/08/31 00:11:08;;;;;;;4.97;4.43;;;22.50;67.60;;;;;;5039514;28;20452;-85
2022/08/31 00:13:37;;;;;;;5.17;4.77;;;22.50;68.80;;;;;;5037881;28;20488;-83
2022/08/31 00:16:04;;;;;;;5.67;5.17;;;22.40;69.10;;;;;;5039206;28;20856;-82
2022/08/31 00:18:31;;;;;;;4.63;4.33;;;22.40;68.40;;;;;;5039073;28;20464;-83
2022/08/31 00:20:58;;;;;;;6.10;4.90;;;22.40;68.50;;;;;;5037459;28;20458;-82
2022/08/31 00:23:25;;;;;;;5.10;4.20;;;22.40;68.50;;;;;;5036176;28;20836;-83
2022/08/31 00:25:52;;;;;;;5.10;4.70;;;22.40;68.50;;;;;;5035804;28;20449;-83
2022/08/31 00:28:19;;;;;;;4.70;4.30;;;22.40;68.90;;;;;;5035045;28;20971;-83
2022/08/31 00:30:47;;;;;;;4.57;4.17;;;22.30;70.00;;;;;;5035860;28;20461;-83
2022/08/31 00:33:14;;;;;;;5.50;5.10;;;22.20;74.60;;;;;;5040604;28;20488;-82
2022/08/31 00:35:41;;;;;;;5.70;5.20;;;22.00;79.40;;;;;;5042530;28;20492;-81
2022/08/31 00:38:11;;;;;;;6.40;4.37;;;21.50;85.60;;;;;;5041940;28;20885;-82
2022/08/31 00:40:38;;;;;;;5.83;5.33;;;21.00;88.30;;;;;;5039929;28;20517;-82
2022/08/31 00:43:05;;;;;;;5.40;5.00;;;20.50;87.80;;;;;;5039400;28;20478;-81
2022/08/31 00:45:32;;;;;;;6.37;5.43;;;20.10;90.10;;;;;;5040260;28;20446;-81
2022/08/31 00:48:00;;;;;;;7.50;6.87;;;19.90;92.50;;;;;;5040353;28;20453;-81
2022/08/31 00:50:27;;;;;;;10.07;7.00;;;19.30;95.90;;;;;;5039577;28;20464;-81
2022/08/31 00:52:57;;;;;;;8.07;7.17;;;18.70;99.90;;;;;;5039367;28;20553;-81
2022/08/31 00:55:30;;;;;;;10.87;7.90;;;18.30;99.90;;;;;;5041732;28;20539;-82
2022/08/31 00:58:00;;;;;;;9.00;7.40;;;18.00;99.90;;;;;;5040061;28;20891;-80
2022/08/31 01:00:28;;;;;;;8.40;7.60;;;17.80;99.90;;;;;;5041919;28;20475;-82
2022/08/31 01:02:56;;;;;;;8.77;7.80;;;17.70;99.90;;;;;;5041845;28;20463;-81
2022/08/31 01:05:25;;;;;;;8.67;7.50;;;17.60;99.90;;;;;;5041782;28;20458;-81
2022/08/31 01:07:52;;;;;;;7.67;7.03;;;17.50;99.90;;;;;;5043197;28;20459;-82
2022/08/31 01:10:23;;;;;;;9.00;8.20;;;17.50;99.90;;;;;;5043271;28;20436;-81
2022/08/31 01:12:54;;;;;;;11.47;9.47;;;17.40;99.90;;;;;;5042467;28;20502;-81
2022/08/31 01:15:22;;;;;;;11.07;9.83;;;17.30;99.90;;;;;;5045415;28;20455;-82
2022/08/31 01:18:00;;;;;;;11.70;10.23;;;17.20;99.90;;;;;;5041272;28;20798;-83
2022/08/31 01:20:36;;;;;;;11.83;10.37;;;17.10;99.90;;;;;;5035244;28;20456;-83
2022/08/31 01:23:09;;;;;;;15.00;11.30;;;17.00;99.90;;;;;;5032282;28;20499;-83
2022/08/31 01:25:38;;;;;;;13.37;11.27;;;16.90;99.90;;;;;;5032989;28;20491;-83
2022/08/31 01:28:07;;;;;;;12.17;10.63;;;16.90;99.90;;;;;;5033118;28;20451;-84
2022/08/31 01:30:35;;;;;;;12.23;10.97;;;16.80;99.90;;;;;;5033584;28;20474;-83
2022/08/31 01:36:26;;;;;;;15.10;11.40;;;16.80;99.90;;;;;;5001886;28;20519;-85
2022/08/31 01:45:21;;;;;;;13.27;12.07;;;16.80;99.90;;;;;;5105927;22;20565;-84
2022/08/31 01:54:12;;;;;;;13.73;12.40;;;16.70;99.90;;;;;;5028399;28;20479;-84
2022/08/31 01:56:41;;;;;;;14.40;12.33;;;16.70;99.90;;;;;;5055793;22;20505;-83
2022/08/31 01:59:10;;;;;;;15.80;13.80;;;16.70;99.90;;;;;;5031865;28;20463;-85
2022/08/31 02:01:41;;;;;;;19.37;13.50;;;16.80;99.90;;;;;;5032042;28;20457;-84
2022/08/31 02:04:11;;;;;;;17.83;14.60;;;17.00;99.90;;;;;;5031936;28;20460;-84
2022/08/31 02:06:37;;;;;;;14.63;13.13;;;17.00;99.90;;;;;;5031655;28;20479;-83
2022/08/31 02:09:06;;;;;;;18.00;15.17;;;17.20;99.90;;;;;;5031619;28;20451;-84
2022/08/31 02:11:32;;;;;;;15.07;13.60;;;17.20;99.90;;;;;;5031529;28;20941;-83
2022/08/31 02:13:59;;;;;;;17.00;14.47;;;17.20;99.90;;;;;;5031624;28;20464;-83
2022/08/31 02:16:26;;;;;;;16.33;14.60;;;17.20;99.90;;;;;;5031389;28;21003;-83
2022/08/31 02:18:54;;;;;;;16.70;15.10;;;17.30;99.90;;;;;;5031765;28;20452;-82
2022/08/31 02:21:21;;;;;;;16.87;15.27;;;17.30;99.90;;;;;;5031340;28;20482;-83
2022/08/31 02:23:48;;;;;;;16.13;14.13;;;17.20;99.90;;;;;;5031864;28;20452;-84
2022/08/31 02:26:15;;;;;;;15.33;13.67;;;17.10;99.90;;;;;;5031422;28;20497;-82
2022/08/31 02:28:42;;;;;;;15.47;14.07;;;17.10;99.90;;;;;;5031374;28;20466;-83
2022/08/31 02:31:09;;;;;;;17.40;13.00;;;17.10;99.90;;;;;;5031446;28;20452;-83
2022/08/31 02:33:35;;;;;;;16.73;15.23;;;17.10;99.90;;;;;;5031614;28;20455;-83
2022/08/31 02:36:04;;;;;;;17.00;15.43;;;17.10;99.90;;;;;;5032037;28;20448;-83
2022/08/31 02:38:32;;;;;;;16.83;15.13;;;17.20;99.90;;;;;;5031891;28;20452;-83
2022/08/31 02:40:58;;;;;;;17.00;15.30;;;17.20;99.90;;;;;;5032180;28;20456;-82
2022/08/31 02:43:25;;;;;;;17.83;15.97;;;17.30;99.90;;;;;;5032039;28;20459;-84
2022/08/31 02:45:52;;;;;;;19.50;15.83;;;17.30;99.90;;;;;;5031657;28;20483;-83
2022/08/31 02:48:19;;;;;;;16.70;15.10;;;17.40;99.90;;;;;;5031335;28;20456;-83
2022/08/31 02:50:48;;;;;;;17.67;14.57;;;17.40;99.90;;;;;;5031875;28;20479;-83
2022/08/31 02:53:18;;;;;;;15.57;13.97;;;17.30;99.90;;;;;;5032135;28;20462;-83
2022/08/31 02:55:45;;;;;;;15.80;14.20;;;17.20;99.90;;;;;;5034365;28;20984;-83
2022/08/31 02:58:13;;;;;;;17.70;14.47;;;17.10;99.90;;;;;;5035760;28;20487;-82
2022/08/31 03:00:43;;;;;;;17.67;15.77;;;17.10;99.90;;;;;;5036191;28;20460;-83
2022/08/31 03:03:10;;;;;;;19.07;15.93;;;17.10;99.90;;;;;;5035998;28;20922;-82
2022/08/31 03:05:37;;;;;;;19.03;16.40;;;17.20;99.90;;;;;;5035606;28;20484;-83
2022/08/31 03:08:04;;;;;;;17.30;15.57;;;17.30;99.90;;;;;;5035219;28;20475;-83
2022/08/31 03:10:32;;;;;;;17.43;15.70;;;17.30;99.90;;;;;;5035456;28;20459;-82
2022/08/31 03:12:59;;;;;;;19.03;17.17;;;17.40;99.90;;;;;;5035098;28;20823;-82
2022/08/31 03:15:26;;;;;;;18.10;16.30;;;17.50;99.90;;;;;;5035301;28;20445;-82
2022/08/31 03:17:53;;;;;;;17.63;15.83;;;17.50;99.90;;;;;;5035189;28;20504;-82
2022/08/31 03:20:22;;;;;;;17.20;15.47;;;17.60;99.90;;;;;;5035849;28;20461;-83
2022/08/31 03:22:49;;;;;;;16.80;15.10;;;17.50;99.90;;;;;;5035577;28;20452;-83
2022/08/31 03:25:16;;;;;;;18.50;16.60;;;17.50;99.90;;;;;;5035517;28;21001;-82
2022/08/31 03:27:45;;;;;;;17.80;16.10;;;17.40;99.90;;;;;;5034726;28;20533;-82
2022/08/31 03:30:14;;;;;;;17.63;15.83;;;17.30;99.90;;;;;;5035183;28;20448;-82
2022/08/31 03:32:41;;;;;;;18.27;16.50;;;17.20;99.90;;;;;;5035448;28;20457;-82
2022/08/31 03:35:09;;;;;;;17.83;16.20;;;17.20;99.90;;;;;;5035143;28;20476;-82
2022/08/31 03:37:36;;;;;;;15.90;14.40;;;17.10;99.90;;;;;;5034649;28;20472;-82
2022/08/31 03:40:03;;;;;;;20.17;15.80;;;17.10;99.90;;;;;;5035302;28;20479;-82
2022/08/31 03:42:30;;;;;;;15.73;14.30;;;17.10;99.90;;;;;;5034817;28;20464;-82
2022/08/31 03:44:58;;;;;;;20.40;15.83;;;17.00;99.90;;;;;;5035378;28;20488;-82
2022/08/31 03:47:26;;;;;;;19.33;17.33;;;17.00;99.90;;;;;;5035276;28;20467;-82
2022/08/31 03:49:52;;;;;;;16.77;15.23;;;17.10;99.90;;;;;;5034481;28;20859;-81
2022/08/31 03:52:20;;;;;;;17.17;15.37;;;17.20;99.90;;;;;;5034431;28;20452;-80
2022/08/31 03:54:47;;;;;;;17.13;15.33;;;17.30;99.90;;;;;;5034695;28;20452;-81
2022/08/31 03:57:14;;;;;;;15.40;13.80;;;17.40;99.90;;;;;;5034223;28;20484;-81
2022/08/31 03:59:40;;;;;;;19.10;17.17;;;17.40;99.90;;;;;;5034536;28;20452;-82
2022/08/31 04:02:08;;;;;;;15.83;14.37;;;17.50;99.90;;;;;;5034736;28;20475;-81
2022/08/31 04:04:35;;;;;;;16.13;14.43;;;17.50;99.90;;;;;;5034656;28;20456;-81
2022/08/31 04:07:02;;;;;;;16.50;14.57;;;17.40;99.90;;;;;;5033989;28;20472;-80
2022/08/31 04:09:29;;;;;;;16.93;15.43;;;17.50;99.90;;;;;;5033978;28;20816;-80
2022/08/31 04:11:56;;;;;;;17.30;15.27;;;17.50;99.90;;;;;;5034138;28;20510;-80
2022/08/31 04:14:23;;;;;;;17.37;15.73;;;17.60;99.90;;;;;;5034073;28;20819;-80
2022/08/31 04:16:49;;;;;;;18.63;15.77;;;17.60;99.90;;;;;;5033894;28;20472;-80
2022/08/31 04:19:18;;;;;;;17.20;15.20;;;17.60;99.90;;;;;;5033898;28;20452;-80
2022/08/31 04:21:46;;;;;;;17.33;15.73;;;17.60;99.90;;;;;;5034773;28;20447;-81
2022/08/31 04:24:13;;;;;;;19.57;17.00;;;17.60;99.90;;;;;;5034659;28;20555;-81
2022/08/31 04:26:40;;;;;;;20.07;15.63;;;17.70;99.90;;;;;;5034305;28;20495;-81
2022/08/31 04:29:08;;;;;;;18.80;17.07;;;17.70;99.90;;;;;;5034455;28;20809;-81
2022/08/31 04:31:36;;;;;;;16.63;14.93;;;17.50;99.90;;;;;;5034569;28;20829;-80
2022/08/31 04:34:04;;;;;;;15.80;14.33;;;17.50;99.90;;;;;;5033861;28;20444;-80
2022/08/31 04:36:32;;;;;;;18.27;16.57;;;17.60;99.90;;;;;;5034025;28;20469;-80
2022/08/31 04:39:01;;;;;;;19.83;18.00;;;17.60;99.90;;;;;;5033968;28;20814;-79
2022/08/31 04:41:29;;;;;;;19.87;17.10;;;17.60;99.90;;;;;;5033600;28;20855;-80
2022/08/31 04:43:59;;;;;;;17.67;15.73;;;17.60;99.90;;;;;;5033927;28;20467;-81
2022/08/31 04:46:27;;;;;;;19.90;17.90;;;17.60;99.90;;;;;;5033666;28;20495;-80
2022/08/31 04:48:55;;;;;;;18.30;16.50;;;17.60;99.90;;;;;;5033842;28;20440;-80
2022/08/31 04:51:24;;;;;;;19.57;17.67;;;17.60;99.90;;;;;;5033702;28;20453;-80
2022/08/31 04:53:53;;;;;;;16.80;15.30;;;17.60;99.90;;;;;;5034442;28;20464;-79
2022/08/31 04:56:23;;;;;;;18.33;16.43;;;17.50;99.90;;;;;;5034799;28;20480;-80
2022/08/31 04:58:52;;;;;;;17.60;15.77;;;17.60;99.90;;;;;;5033073;28;20464;-79
2022/08/31 05:01:20;;;;;;;15.93;13.97;;;17.60;99.90;;;;;;5032837;28;20452;-79
2022/08/31 05:03:51;;;;;;;16.80;14.73;;;17.70;99.90;;;;;;5032684;28;20459;-79
2022/08/31 05:06:20;;;;;;;16.43;14.83;;;17.70;99.90;;;;;;5032704;28;20554;-79
2022/08/31 05:08:46;;;;;;;16.33;14.70;;;17.80;99.90;;;;;;5032250;28;20456;-79
2022/08/31 05:11:18;;;;;;;16.93;15.43;;;17.80;99.90;;;;;;5033273;28;20441;-80
2022/08/31 05:13:45;;;;;;;19.07;15.60;;;17.80;99.90;;;;;;5032976;28;20452;-79
2022/08/31 05:16:14;;;;;;;18.67;16.87;;;17.80;99.90;;;;;;5032398;28;20468;-80
2022/08/31 05:18:43;;;;;;;21.17;18.90;;;17.90;99.90;;;;;;5031781;28;20849;-81
2022/08/31 05:21:10;;;;;;;16.40;14.80;;;17.90;99.90;;;;;;5039085;28;20770;-82
2022/08/31 05:23:37;;;;;;;16.43;14.83;;;17.90;99.90;;;;;;5040583;28;20456;-82
2022/08/31 05:26:05;;;;;;;16.93;15.37;;;17.80;99.90;;;;;;5041005;28;20494;-83
2022/08/31 05:28:34;;;;;;;17.97;16.30;;;17.90;99.90;;;;;;5041252;28;20457;-82
2022/08/31 05:31:02;;;;;;;16.97;15.13;;;17.90;99.90;;;;;;5041710;28;20463;-83
2022/08/31 05:33:29;;;;;;;17.83;16.10;;;17.80;99.90;;;;;;5042494;28;20459;-84
2022/08/31 05:35:56;;;;;;;16.47;14.63;;;17.70;99.90;;;;;;5040070;28;20459;-83
2022/08/31 05:38:22;;;;;;;17.63;16.03;;;17.70;99.90;;;;;;5040779;28;20460;-83
2022/08/31 05:40:52;;;;;;;18.63;14.83;;;17.60;99.90;;;;;;5041191;28;20462;-83
2022/08/31 05:43:19;;;;;;;16.43;14.30;;;17.60;99.90;;;;;;5040171;28;20456;-83
2022/08/31 05:45:47;;;;;;;14.90;13.57;;;17.50;99.90;;;;;;5040129;28;20488;-83
2022/08/31 05:48:14;;;;;;;15.30;13.80;;;17.60;99.90;;;;;;5038791;28;20476;-83
2022/08/31 05:50:41;;;;;;;15.90;14.07;;;17.60;99.90;;;;;;5037823;28;20460;-83
2022/08/31 05:53:08;;;;;;;13.97;12.77;;;17.50;99.90;;;;;;5037700;28;20463;-83
2022/08/31 05:55:34;;;;;;;14.10;12.70;;;17.50;99.90;;;;;;5037245;28;20475;-82
2022/08/31 05:58:01;;;;;;;14.83;13.27;;;17.50;99.90;;;;;;5034733;28;20604;-82
2022/08/31 06:00:29;;;;;;;15.50;14.00;;;17.60;99.90;;;;;;5037257;28;20452;-82
2022/08/31 06:02:58;;;;;;;13.00;11.70;;;17.70;99.90;;;;;;5039633;28;20455;-81
2022/08/31 06:05:25;;;;;;;15.77;12.27;;;17.70;99.90;;;;;;5040159;28;20447;-82
2022/08/31 06:07:51;;;;;;;11.93;10.73;;;17.70;99.90;;;;;;5039468;28;21004;-84
2022/08/31 06:10:19;;;;;;;13.33;12.03;;;17.70;99.90;;;;;;5038827;28;20455;-82
2022/08/31 06:12:46;;;;;;;14.13;12.77;;;17.80;99.90;;;;;;5039602;28;20456;-86
2022/08/31 06:15:14;;;;;;;12.43;11.23;;;17.80;99.90;;;;;;5038901;28;20455;-83
2022/08/31 06:17:41;;;;;;;11.37;10.30;;;17.80;99.90;;;;;;5034916;28;20575;-83
2022/08/31 06:20:10;;;;;;;10.70;9.80;;;17.80;99.90;;;;;;5040190;28;20479;-84
2022/08/31 06:22:37;;;;;;;13.33;10.53;;;17.80;99.90;;;;;;5041068;28;20941;-86
2022/08/31 06:25:06;;;;;;;11.43;10.33;;;17.80;99.90;;;;;;5041053;28;20478;-83
2022/08/31 06:27:33;;;;;;;13.67;12.07;;;17.90;99.90;;;;;;5037443;28;20853;-82
2022/08/31 06:30:01;;;;;;;11.70;10.53;;;17.80;99.90;;;;;;5039113;28;20467;-83
2022/08/31 06:32:28;;;;;;;13.17;11.70;;;17.90;99.90;;;;;;5041840;28;20464;-82
2022/08/31 06:34:54;;;;;;;15.70;14.10;;;17.90;99.90;;;;;;5041824;28;20523;-83
2022/08/31 06:37:22;;;;;;;15.17;13.70;;;17.80;99.90;;;;;;5041861;28;20472;-86
2022/08/31 06:39:52;;;;;;;15.60;14.20;;;17.70;99.90;;;;;;5042200;28;20463;-86
2022/08/31 06:42:19;;;;;;;14.90;13.50;;;17.70;99.90;;;;;;5042591;28;20444;-83
2022/08/31 06:44:46;;;;;;;15.30;13.70;;;17.80;99.90;;;;;;5041924;28;20447;-86
2022/08/31 06:47:13;;;;;;;14.50;13.00;;;17.80;99.90;;;;;;5043894;28;20526;-84
2022/08/31 06:49:39;;;;;;;14.20;12.90;;;17.70;99.90;;;;;;5044280;28;20810;-88
2022/08/31 06:52:06;;;;;;;14.37;13.03;;;17.70;99.90;;;;;;5044365;28;20460;-83
2022/08/31 06:54:35;;;;;;;13.50;12.30;;;17.70;99.90;;;;;;5044347;28;20459;-84
2022/08/31 06:57:02;;;;;;;13.07;11.87;;;17.80;99.90;;;;;;5043761;28;20491;-85
2022/08/31 06:59:29;;;;;;;13.83;12.40;;;17.80;99.90;;;;;;5044978;28;20487;-83
2022/08/31 07:01:55;;;;;;;14.50;13.23;;;17.80;99.90;;;;;;5044954;28;20802;-85
2022/08/31 07:04:22;;;;;;;14.37;12.97;;;17.70;99.90;;;;;;5045277;28;20455;-85
2022/08/31 07:06:49;;;;;;;15.30;13.30;;;17.60;99.90;;;;;;5044239;28;20496;-83
2022/08/31 07:09:17;;;;;;;14.73;13.33;;;17.70;99.90;;;;;;5043542;28;20568;-84
2022/08/31 07:11:47;;;;;;;16.00;14.40;;;17.70;99.90;;;;;;5041135;28;20506;-85
2022/08/31 07:14:16;;;;;;;14.73;13.10;;;17.70;99.90;;;;;;5042234;28;20452;-84
2022/08/31 07:16:43;;;;;;;15.20;13.70;;;17.70;99.90;;;;;;5041767;28;20468;-84
2022/08/31 07:19:11;;;;;;;14.33;13.03;;;17.70;99.90;;;;;;5041526;28;20448;-85
2022/08/31 07:21:42;;;;;;;16.57;15.10;;;17.80;99.90;;;;;;5041311;28;20453;-85
2022/08/31 07:24:10;;;;;;;16.10;14.70;;;17.80;99.90;;;;;;5042988;28;20464;-85
2022/08/31 07:26:43;;;;;;;19.87;15.90;;;17.60;99.90;;;;;;5051545;28;20487;-83
2022/08/31 07:29:13;;;;;;;12.93;11.73;;;17.60;99.90;;;;;;5040383;28;20459;-85
2022/08/31 07:31:43;;;;;;;14.13;11.90;;;17.60;99.90;;;;;;5040868;28;20839;-85
2022/08/31 07:34:11;;;;;;;12.03;10.97;;;17.40;99.90;;;;;;5038866;28;20460;-84
2022/08/31 07:42:08;;;;;;;15.83;11.27;;;17.40;99.90;;;;;;5039280;28;20468;-84
2022/08/31 07:42:11;;;;;;;11.43;10.33;;;17.30;99.90;;;;;;5036783;28;20795;-84
2022/08/31 07:44:40;;;;;;;13.10;10.57;;;17.30;99.90;;;;;;5037185;28;21133;-84
2022/08/31 07:47:10;;;;;;;11.97;10.90;;;17.40;99.90;;;;;;5037015;28;21020;-84
2022/08/31 07:49:38;;;;;;;12.70;11.53;;;17.50;99.90;;;;;;5037433;28;21016;-84
2022/08/31 07:52:05;;;;;;;12.70;11.67;;;17.50;99.90;;;;;;5037438;28;21008;-83
2022/08/31 07:54:33;;;;;;;12.30;11.10;;;17.60;99.90;;;;;;5038665;28;20495;-84
2022/08/31 07:57:02;;;;;;;13.17;11.40;;;17.60;99.90;;;;;;5040140;28;20511;-85
2022/08/31 07:59:30;;;;;;;18.37;13.83;;;17.50;99.90;;;;;;5041803;28;20452;-86
2022/08/31 08:02:00;;;;;;;13.57;12.27;;;17.70;99.90;;;;;;5042429;28;20455;-86
2022/08/31 08:04:28;;;;;;;14.00;12.70;;;17.70;99.90;;;;;;5042865;28;20448;-86
2022/08/31 08:06:56;;;;;;;14.77;13.40;;;17.70;99.90;;;;;;5041848;28;20497;-85
2022/08/31 08:09:23;;;;;;;15.90;14.27;;;17.80;99.90;;;;;;5042665;28;20452;-85
2022/08/31 08:11:53;;;;;;;15.03;12.73;;;18.00;99.90;;;;;;5042910;28;20457;-86
2022/08/31 08:14:21;;;;;;;14.70;13.30;;;18.00;99.90;;;;;;5042837;28;20456;-87
2022/08/31 08:16:48;;;;;;;13.30;12.00;;;18.10;99.90;;;;;;5042811;28;20931;-86
2022/08/31 08:19:16;;;;;;;14.30;12.93;;;18.20;99.90;;;;;;5042354;28;20754;-87
2022/08/31 08:21:44;;;;;;;14.37;12.90;;;18.20;99.90;;;;;;5048958;28;20440;-82
2022/08/31 08:24:12;;;;;;;14.10;13.00;;;18.10;99.90;;;;;;5047976;28;20461;-85
2022/08/31 08:26:43;;;;;;;12.50;11.43;;;18.00;99.90;;;;;;5042907;28;20492;-86
2022/08/31 08:29:09;;;;;;;14.80;13.30;;;17.90;99.90;;;;;;5044233;28;20960;-86
2022/08/31 08:31:36;;;;;;;13.30;12.10;;;17.90;99.90;;;;;;5046232;28;20449;-84
2022/08/31 08:34:03;;;;;;;13.80;12.57;;;17.90;99.90;;;;;;5048047;28;20453;-84
2022/08/31 08:36:34;;;;;;;14.00;12.77;;;18.00;99.90;;;;;;5045658;28;20475;-86
2022/08/31 08:39:03;;;;;;;12.67;11.57;;;18.00;99.90;;;;;;5042961;28;20464;-86
2022/08/31 08:41:33;;;;;;;13.23;12.00;;;18.20;99.90;;;;;;5043590;28;20446;-86
2022/08/31 08:44:02;;;;;;;13.00;12.00;;;18.30;99.90;;;;;;5043762;28;20456;-85
2022/08/31 08:46:31;;;;;;;12.50;11.30;;;18.50;99.90;;;;;;5042194;28;20492;-87
2022/08/31 08:49:00;;;;;;;13.37;12.03;;;18.60;99.90;;;;;;5043022;28;20453;-84
2022/08/31 08:51:37;;;;;;;12.90;11.80;;;18.70;99.90;;;;;;5043733;28;20453;-87
2022/08/31 08:54:10;;;;;;;13.30;12.10;;;18.80;99.90;;;;;;5044421;28;20459;-85
2022/08/31 08:56:40;;;;;;;13.60;12.20;;;18.90;99.90;;;;;;5043897;28;20468;-86
2022/08/31 08:59:10;;;;;;;20.70;12.27;;;19.00;99.90;;;;;;5043827;28;20457;-86
2022/08/31 09:01:37;;;;;;;11.80;10.83;;;19.10;99.90;;;;;;5044824;28;20449;-87
2022/08/31 09:04:10;;;;;;;10.43;9.50;;;19.10;99.90;;;;;;5044381;28;20457;-85
2022/08/31 09:06:53;;;;;;;10.53;9.63;;;19.20;99.90;;;;;;5044501;28;20483;-86
2022/08/31 09:09:31;;;;;;;11.30;10.20;;;19.30;99.90;;;;;;5043546;28;20480;-87
2022/08/31 09:12:12;;;;;;;11.10;10.10;;;19.20;99.90;;;;;;5044440;28;20444;-84
2022/08/31 09:14:52;;;;;;;11.53;10.53;;;19.30;99.90;;;;;;5044395;28;20457;-87
2022/08/31 09:17:34;;;;;;;12.60;11.50;;;19.30;99.90;;;;;;5048643;28;20499;-80
2022/08/31 09:20:04;;;;;;;11.77;10.77;;;19.40;99.90;;;;;;5050461;28;20445;-86
2022/08/31 09:22:34;;;;;;;12.57;11.37;;;19.60;99.90;;;;;;5044559;28;20453;-84
2022/08/31 09:25:02;;;;;;;13.23;12.17;;;19.60;99.90;;;;;;5044400;28;20442;-86
2022/08/31 09:27:45;;;;;;;11.93;11.00;;;19.60;99.90;;;;;;5043731;28;20522;-84
2022/08/31 09:30:17;;;;;;;11.83;10.87;;;19.60;99.90;;;;;;5044046;28;20489;-87
2022/08/31 09:32:56;;;;;;;10.57;9.70;;;19.50;99.90;;;;;;5041140;28;20445;-86
2022/08/31 09:35:28;;;;;;;12.30;11.33;;;19.50;99.90;;;;;;5039219;28;20961;-85
2022/08/31 09:38:01;;;;;;;11.63;10.53;;;19.50;99.90;;;;;;5042081;28;20471;-85
2022/08/31 09:40:38;;;;;;;12.70;11.43;;;19.50;99.90;;;;;;5044295;28;20449;-87
2022/08/31 09:43:33;;;;;;;12.43;11.33;;;19.70;99.90;;;;;;5047485;28;20440;-86
2022/08/31 09:46:10;;;;;;;11.03;10.00;;;19.80;99.90;;;;;;5048125;28;20460;-86
2022/08/31 09:48:50;;;;;;;10.83;9.93;;;19.90;99.90;;;;;;5040380;28;20904;-86
2022/08/31 09:51:23;;;;;;;10.67;9.77;;;20.00;99.90;;;;;;5042598;28;20458;-86
2022/08/31 09:56:53;;;;;;;13.70;12.47;;;20.10;99.90;;;;;;5041484;28;20481;-86
2022/08/31 09:59:32;;;;;;;13.63;12.53;;;20.20;99.90;;;;;;5041457;28;20488;-86
2022/08/31 10:02:01;;;;;;;12.57;11.50;;;20.10;99.90;;;;;;5041288;28;20455;-87
2022/08/31 10:04:31;;;;;;;14.27;12.80;;;20.20;99.90;;;;;;5040975;28;20457;-84
2022/08/31 10:07:05;;;;;;;14.00;12.87;;;20.10;99.90;;;;;;5044497;28;21154;-84
2022/08/31 10:09:37;;;;;;;13.90;12.50;;;20.00;99.90;;;;;;5044433;28;20457;-87
2022/08/31 10:12:08;;;;;;;15.37;14.07;;;19.90;99.90;;;;;;5044775;28;20452;-86
2022/08/31 10:14:40;;;;;;;13.87;12.50;;;19.80;99.90;;;;;;5052815;28;20453;-86
2022/08/31 10:17:13;;;;;;;15.93;14.43;;;19.60;99.90;;;;;;5042366;28;20473;-85
2022/08/31 10:19:52;;;;;;;14.13;12.83;;;19.50;99.90;;;;;;5043354;28;20511;-85
2022/08/31 10:22:26;;;;;;;14.13;12.90;;;19.40;99.90;;;;;;5044964;28;20536;-86
2022/08/31 10:25:13;;;;;;;15.30;14.00;;;19.40;99.90;;;;;;5044855;28;20460;-86
2022/08/31 10:27:47;;;;;;;15.10;13.80;;;19.40;99.90;;;;;;5044192;28;20500;-87
2022/08/31 10:30:22;;;;;;;14.30;13.20;;;19.30;99.90;;;;;;5044401;28;20452;-87
2022/08/31 10:32:56;;;;;;;15.50;14.20;;;19.30;99.90;;;;;;5043635;28;20856;-85
2022/08/31 10:35:28;;;;;;;15.57;14.27;;;19.30;99.90;;;;;;5043688;28;20462;-85
2022/08/31 10:38:07;;;;;;;16.53;15.13;;;19.40;99.90;;;;;;5043157;28;20463;-85
2022/08/31 10:40:43;;;;;;;12.20;11.07;;;19.30;99.90;;;;;;5043652;28;20452;-86
2022/08/31 10:43:16;;;;;;;12.50;11.50;;;19.40;99.90;;;;;;5044056;28;20442;-87
2022/08/31 10:45:47;;;;;;;13.27;12.10;;;19.30;99.90;;;;;;5044312;28;20488;-84
2022/08/31 10:48:16;;;;;;;13.20;12.17;;;19.30;99.90;;;;;;5042368;28;20856;-86
2022/08/31 10:50:49;;;;;;;12.47;11.30;;;19.40;99.90;;;;;;5043320;28;20441;-86
2022/08/31 10:53:32;;;;;;;11.60;10.60;;;19.40;99.90;;;;;;5042677;28;20458;-86
2022/08/31 10:56:13;;;;;;;12.80;11.53;;;19.50;99.90;;;;;;5041811;28;21586;-86
2022/08/31 10:58:49;;;;;;;11.80;10.70;;;19.50;99.90;;;;;;5043117;28;20454;-86
2022/08/31 11:01:21;;;;;;;11.80;10.90;;;19.50;99.90;;;;;;5043539;28;20453;-86
2022/08/31 11:04:14;;;;;;;12.30;11.20;;;19.50;99.90;;;;;;5043015;28;20830;-86
2022/08/31 11:06:50;;;;;;;12.20;11.07;;;19.60;99.90;;;;;;5039598;28;20484;-88
2022/08/31 11:09:22;;;;;;;12.03;11.03;;;19.70;99.90;;;;;;5044229;28;21035;-84
2022/08/31 11:11:56;;;;;;;12.00;11.00;;;19.80;99.90;;;;;;5047222;28;20458;-87
2022/08/31 11:14:48;;;;;;;12.10;11.00;;;20.00;99.90;;;;;;5042161;28;20491;-87
2022/08/31 11:17:30;;;;;;;12.00;10.90;;;19.90;99.90;;;;;;5041238;28;20469;-87
2022/08/31 11:20:18;;;;;;;12.70;11.50;;;20.00;99.90;;;;;;5042853;28;20466;-87
2022/08/31 11:23:14;;;;;;;11.67;10.67;;;20.00;99.90;;;;;;5042806;28;20457;-86
2022/08/31 11:26:19;;;;;;;11.67;10.67;;;20.00;99.90;;;;;;5043503;28;20464;-86
2022/08/31 11:28:51;;;;;;;11.70;10.73;;;19.80;99.90;;;;;;5044883;28;21021;-85
2022/08/31 11:31:23;;;;;;;11.90;10.70;;;19.80;99.90;;;;;;5044474;28;20445;-85
2022/08/31 11:33:56;;;;;;;12.43;11.10;;;19.70;99.90;;;;;;5044573;28;20862;-86
2022/08/31 11:36:46;;;;;;;12.53;11.43;;;19.70;99.90;;;;;;5045316;28;20495;-86
2022/08/31 11:39:35;;;;;;;14.03;12.53;;;19.70;99.90;;;;;;5045439;28;20454;-86
2022/08/31 11:42:03;;;;;;;12.77;11.40;;;19.50;99.90;;;;;;5046175;28;20477;-87
2022/08/31 11:45:00;;;;;;;13.87;12.60;;;19.40;99.90;;;;;;5045923;28;20460;-86
2022/08/31 11:47:50;;;;;;;12.00;10.93;;;19.40;99.90;;;;;;5046115;28;20500;-86
2022/08/31 11:50:50;;;;;;;12.80;11.63;;;19.30;99.90;;;;;;5041316;28;20841;-86
2022/08/31 11:53:24;;;;;;;12.47;11.47;;;19.30;99.90;;;;;;5025512;28;20457;-86
2022/08/31 11:55:55;;;;;;;14.07;12.77;;;19.20;99.90;;;;;;5045512;28;20445;-86
2022/08/31 11:58:30;;;;;;;11.20;10.20;;;19.20;99.90;;;;;;5045431;28;21077;-86
2022/08/31 12:01:02;;;;;;;13.43;12.27;;;19.20;99.90;;;;;;5046086;28;20463;-85
2022/08/31 12:03:54;;;;;;;13.50;12.20;;;19.20;99.90;;;;;;5046449;28;20453;-85
2022/08/31 12:07:07;;;;;;;13.53;12.23;;;19.20;99.90;;;;;;5052830;28;20459;-84
2022/08/31 12:10:05;;;;;;;11.77;10.67;;;19.30;99.90;;;;;;5045030;28;20929;-85
2022/08/31 12:12:48;;;;;;;12.90;11.67;;;19.30;99.90;;;;;;5045326;28;20449;-85
2022/08/31 12:15:24;;;;;;;12.90;11.80;;;19.40;99.90;;;;;;5044730;28;20448;-85
2022/08/31 12:18:08;;;;;;;12.00;11.00;;;19.50;99.90;;;;;;5044668;28;20468;-85
2022/08/31 12:23:52;;;;;;;12.70;11.53;;;19.60;99.90;;;;;;5043035;28;20425;-85
2022/08/31 12:26:43;;;;;;;13.30;11.93;;;19.50;99.90;;;;;;5043151;28;20469;-85
2022/08/31 12:29:22;;;;;;;12.97;11.90;;;19.60;99.90;;;;;;5043431;28;20483;-84
2022/08/31 12:32:20;;;;;;;15.30;12.80;;;19.70;99.90;;;;;;5044057;28;20454;-85
2022/08/31 12:34:56;;;;;;;12.40;11.27;;;19.80;99.90;;;;;;5043285;28;20457;-85
2022/08/31 12:37:25;;;;;;;13.83;12.40;;;19.80;99.90;;;;;;5044920;28;20499;-85
2022/08/31 12:40:11;;;;;;;15.70;12.10;;;20.00;99.90;;;;;;5043360;28;20453;-85
2022/08/31 12:42:42;;;;;;;11.67;10.57;;;20.10;99.90;;;;;;5043540;28;20458;-85
2022/08/31 12:45:12;;;;;;;12.60;11.50;;;20.30;99.90;;;;;;5043863;28;20525;-85
2022/08/31 12:47:51;;;;;;;12.30;11.20;;;20.50;99.90;;;;;;5043485;28;20490;-85
2022/08/31 12:50:27;;;;;;;11.77;10.80;;;20.70;99.90;;;;;;5043311;28;20461;-85
2022/08/31 12:53:29;;;;;;;12.20;11.20;;;20.70;99.90;;;;;;5043221;28;20445;-85
2022/08/31 12:56:01;;;;;;;11.03;10.13;;;20.80;99.90;;;;;;5043603;28;20453;-85
2022/08/31 12:58:49;;;;;;;12.10;10.83;;;21.00;99.90;;;;;;5042868;28;20451;-85
2022/08/31 13:01:20;;;;;;;10.97;10.10;;;21.10;99.90;;;;;;5046565;28;20590;-83
2022/08/31 13:03:50;;;;;;;14.07;12.67;;;21.30;99.90;;;;;;5049672;28;20455;-85
2022/08/31 13:06:25;;;;;;;10.73;9.93;;;21.60;99.90;;;;;;5043344;28;21060;-84
2022/08/31 13:08:54;;;;;;;10.03;9.00;;;22.00;99.90;;;;;;5042521;28;21012;-85
2022/08/31 13:11:30;;;;;;;11.37;10.20;;;22.20;99.90;;;;;;5042688;28;20500;-85
2022/08/31 13:14:11;;;;;;;11.67;10.57;;;22.40;99.90;;;;;;5043783;28;20469;-85
2022/08/31 13:16:40;;;;;;;10.87;10.00;;;22.50;99.90;;;;;;5043216;28;20464;-85
2022/08/31 13:19:07;;;;;;;11.37;10.30;;;22.60;99.90;;;;;;5043092;28;20441;-85